Terminal Aerodrome Forecast
Issued by NWS Medford, OR

Home | Current Version | Previous Version | Text Only | Print | Product List | Glossary On
Versions: 1 2 3 4 5 6 7 8 9 10 11 12 13 14 15 16 17 18 19 20 21 22 23 24 25 26 27 28 29 30 31 32 33 34 35
000
FTUS46 KMFR 291145
TAFMFR
TAF
KMFR 291145Z 2912/3012 32003KT P6SM -SHRA SCT030 BKN050
     FM291400 34003KT 4SM -SHSNRA BR SCT007 BKN025 OVC040
     FM291600 VRB03KT 3SM -SHSN BR SCT007 BKN020 OVC035
     FM291800 VRB03KT P6SM -SHRASN SCT015 SCT025 OVC035
     FM292300 35006KT P6SM SCT035 BKN050
     FM301000 12003KT P6SM FEW005=

USA.gov is the U.S. government's official web portal to all federal, state and local government web resources and services.